sensor_id;sensor_type;location;lat;lon;timestamp;temperature;humidity
14473;DHT22;7322;50.872;4.386;2022-08-21T00:01:48;19.20;99.90
14473;DHT22;7322;50.872;4.386;2022-08-21T00:04:15;19.20;99.90
14473;DHT22;7322;50.872;4.386;2022-08-21T00:06:42;19.10;99.90
14473;DHT22;7322;50.872;4.386;2022-08-21T00:09:10;19.00;99.90
14473;DHT22;7322;50.872;4.386;2022-08-21T00:11:40;19.00;99.90
14473;DHT22;7322;50.872;4.386;2022-08-21T00:14:08;19.00;99.90
14473;DHT22;7322;50.872;4.386;2022-08-21T00:16:35;18.90;99.90
14473;DHT22;7322;50.872;4.386;2022-08-21T00:19:05;18.90;99.90
14473;DHT22;7322;50.872;4.386;2022-08-21T00:21:32;18.90;99.90
14473;DHT22;7322;50.872;4.386;2022-08-21T00:23:59;18.90;99.90
14473;DHT22;7322;50.872;4.386;2022-08-21T00:26:26;18.70;99.90
14473;DHT22;7322;50.872;4.386;2022-08-21T00:28:55;18.80;99.90
14473;DHT22;7322;50.872;4.386;2022-08-21T00:31:22;18.70;99.90
14473;DHT22;7322;50.872;4.386;2022-08-21T00:33:49;18.60;99.90
14473;DHT22;7322;50.872;4.386;2022-08-21T00:36:17;18.60;99.90
14473;DHT22;7322;50.872;4.386;2022-08-21T00:38:44;18.50;99.90
14473;DHT22;7322;50.872;4.386;2022-08-21T00:41:13;18.60;99.90
14473;DHT22;7322;50.872;4.386;2022-08-21T00:43:43;18.50;99.90
14473;DHT22;7322;50.872;4.386;2022-08-21T00:46:12;18.50;99.90
14473;DHT22;7322;50.872;4.386;2022-08-21T00:48:39;18.40;99.90
14473;DHT22;7322;50.872;4.386;2022-08-21T00:51:32;18.40;99.90
14473;DHT22;7322;50.872;4.386;2022-08-21T00:54:02;18.40;99.90
14473;DHT22;7322;50.872;4.386;2022-08-21T00:56:36;18.30;99.90
14473;DHT22;7322;50.872;4.386;2022-08-21T00:59:10;18.30;99.90
14473;DHT22;7322;50.872;4.386;2022-08-21T01:01:39;18.20;99.90
14473;DHT22;7322;50.872;4.386;2022-08-21T01:04:06;18.20;99.90
14473;DHT22;7322;50.872;4.386;2022-08-21T01:06:33;18.20;99.90
14473;DHT22;7322;50.872;4.386;2022-08-21T01:09:02;18.30;99.90
14473;DHT22;7322;50.872;4.386;2022-08-21T01:11:30;18.20;99.90
14473;DHT22;7322;50.872;4.386;2022-08-21T01:13:57;18.20;99.90
14473;DHT22;7322;50.872;4.386;2022-08-21T01:16:25;18.20;99.90
14473;DHT22;7322;50.872;4.386;2022-08-21T01:18:53;18.10;99.90
14473;DHT22;7322;50.872;4.386;2022-08-21T01:21:23;18.10;99.90
14473;DHT22;7322;50.872;4.386;2022-08-21T01:23:52;18.20;99.90
14473;DHT22;7322;50.872;4.386;2022-08-21T01:26:22;18.10;99.90
14473;DHT22;7322;50.872;4.386;2022-08-21T01:28:54;18.10;99.90
14473;DHT22;7322;50.872;4.386;2022-08-21T01:31:25;18.10;99.90
14473;DHT22;7322;50.872;4.386;2022-08-21T01:33:52;18.00;99.90
14473;DHT22;7322;50.872;4.386;2022-08-21T01:36:19;18.00;99.90
14473;DHT22;7322;50.872;4.386;2022-08-21T01:38:47;18.10;99.90
14473;DHT22;7322;50.872;4.386;2022-08-21T01:41:16;18.10;99.90
14473;DHT22;7322;50.872;4.386;2022-08-21T01:43:44;18.00;99.90
14473;DHT22;7322;50.872;4.386;2022-08-21T01:46:12;18.00;99.90
14473;DHT22;7322;50.872;4.386;2022-08-21T01:48:39;17.90;99.90
14473;DHT22;7322;50.872;4.386;2022-08-21T01:51:06;17.80;99.90
14473;DHT22;7322;50.872;4.386;2022-08-21T01:53:35;17.70;99.90
14473;DHT22;7322;50.872;4.386;2022-08-21T01:56:06;17.70;99.90
14473;DHT22;7322;50.872;4.386;2022-08-21T01:58:35;17.70;99.90
14473;DHT22;7322;50.872;4.386;2022-08-21T02:01:03;17.70;99.90
14473;DHT22;7322;50.872;4.386;2022-08-21T02:03:30;17.60;99.90
14473;DHT22;7322;50.872;4.386;2022-08-21T02:05:57;17.60;99.90
14473;DHT22;7322;50.872;4.386;2022-08-21T02:08:24;17.60;99.90
14473;DHT22;7322;50.872;4.386;2022-08-21T02:10:52;17.50;99.90
14473;DHT22;7322;50.872;4.386;2022-08-21T02:13:20;17.50;99.90
14473;DHT22;7322;50.872;4.386;2022-08-21T02:15:48;17.50;99.90
14473;DHT22;7322;50.872;4.386;2022-08-21T02:18:15;17.50;99.90
14473;DHT22;7322;50.872;4.386;2022-08-21T02:20:44;17.50;99.90
14473;DHT22;7322;50.872;4.386;2022-08-21T02:23:12;17.50;99.90
14473;DHT22;7322;50.872;4.386;2022-08-21T02:25:40;17.50;99.90
14473;DHT22;7322;50.872;4.386;2022-08-21T02:28:11;17.40;99.90
14473;DHT22;7322;50.872;4.386;2022-08-21T02:30:43;17.30;99.90
14473;DHT22;7322;50.872;4.386;2022-08-21T02:33:11;17.30;99.90
14473;DHT22;7322;50.872;4.386;2022-08-21T02:35:39;17.40;99.90
14473;DHT22;7322;50.872;4.386;2022-08-21T02:38:10;17.40;99.90
14473;DHT22;7322;50.872;4.386;2022-08-21T02:40:38;17.50;99.90
14473;DHT22;7322;50.872;4.386;2022-08-21T02:43:06;17.40;99.90
14473;DHT22;7322;50.872;4.386;2022-08-21T02:45:35;17.40;99.90
14473;DHT22;7322;50.872;4.386;2022-08-21T02:48:06;17.40;99.90
14473;DHT22;7322;50.872;4.386;2022-08-21T02:50:35;17.40;99.90
14473;DHT22;7322;50.872;4.386;2022-08-21T02:53:04;17.40;99.90
14473;DHT22;7322;50.872;4.386;2022-08-21T02:55:32;17.50;99.90
14473;DHT22;7322;50.872;4.386;2022-08-21T02:58:00;17.50;99.90
14473;DHT22;7322;50.872;4.386;2022-08-21T03:00:30;17.50;99.90
14473;DHT22;7322;50.872;4.386;2022-08-21T03:02:57;17.50;99.90
14473;DHT22;7322;50.872;4.386;2022-08-21T03:05:28;17.50;99.90
14473;DHT22;7322;50.872;4.386;2022-08-21T03:07:58;17.40;99.90
14473;DHT22;7322;50.872;4.386;2022-08-21T03:10:26;17.40;99.90
14473;DHT22;7322;50.872;4.386;2022-08-21T03:12:53;17.30;99.90
14473;DHT22;7322;50.872;4.386;2022-08-21T03:15:22;17.40;99.90
14473;DHT22;7322;50.872;4.386;2022-08-21T03:17:51;17.30;99.90
14473;DHT22;7322;50.872;4.386;2022-08-21T03:20:22;17.30;99.90
14473;DHT22;7322;50.872;4.386;2022-08-21T03:22:51;17.30;99.90
14473;DHT22;7322;50.872;4.386;2022-08-21T03:25:18;17.30;99.90
14473;DHT22;7322;50.872;4.386;2022-08-21T03:27:46;17.30;99.90
14473;DHT22;7322;50.872;4.386;2022-08-21T03:30:15;17.20;99.90
14473;DHT22;7322;50.872;4.386;2022-08-21T03:32:42;17.30;99.90
14473;DHT22;7322;50.872;4.386;2022-08-21T03:35:09;17.20;99.90
14473;DHT22;7322;50.872;4.386;2022-08-21T03:37:37;17.20;99.90
14473;DHT22;7322;50.872;4.386;2022-08-21T03:40:07;17.20;99.90
14473;DHT22;7322;50.872;4.386;2022-08-21T03:42:34;17.20;99.90
14473;DHT22;7322;50.872;4.386;2022-08-21T03:45:02;17.30;99.90
14473;DHT22;7322;50.872;4.386;2022-08-21T03:47:30;17.30;99.90
14473;DHT22;7322;50.872;4.386;2022-08-21T03:49:58;17.30;99.90
14473;DHT22;7322;50.872;4.386;2022-08-21T03:52:24;17.20;99.90
14473;DHT22;7322;50.872;4.386;2022-08-21T03:54:51;17.20;99.90
14473;DHT22;7322;50.872;4.386;2022-08-21T03:57:20;17.10;99.90
14473;DHT22;7322;50.872;4.386;2022-08-21T03:59:47;17.10;99.90
14473;DHT22;7322;50.872;4.386;2022-08-21T04:02:16;17.20;99.90
14473;DHT22;7322;50.872;4.386;2022-08-21T04:04:45;17.10;99.90
14473;DHT22;7322;50.872;4.386;2022-08-21T04:07:13;17.10;99.90
14473;DHT22;7322;50.872;4.386;2022-08-21T04:09:41;17.20;99.90
14473;DHT22;7322;50.872;4.386;2022-08-21T04:12:08;17.00;99.90
14473;DHT22;7322;50.872;4.386;2022-08-21T04:14:37;17.00;99.90
14473;DHT22;7322;50.872;4.386;2022-08-21T04:17:04;17.00;99.90
14473;DHT22;7322;50.872;4.386;2022-08-21T04:19:32;17.00;99.90
14473;DHT22;7322;50.872;4.386;2022-08-21T04:22:10;17.00;99.90
14473;DHT22;7322;50.872;4.386;2022-08-21T04:24:38;17.00;99.90
14473;DHT22;7322;50.872;4.386;2022-08-21T04:27:05;16.90;99.90
14473;DHT22;7322;50.872;4.386;2022-08-21T04:32:37;17.00;99.90
14473;DHT22;7322;50.872;4.386;2022-08-21T04:35:22;17.00;99.90
14473;DHT22;7322;50.872;4.386;2022-08-21T04:37:50;16.90;99.90
14473;DHT22;7322;50.872;4.386;2022-08-21T04:40:18;16.90;99.90
14473;DHT22;7322;50.872;4.386;2022-08-21T04:42:48;16.90;99.90
14473;DHT22;7322;50.872;4.386;2022-08-21T04:45:18;16.90;99.90
14473;DHT22;7322;50.872;4.386;2022-08-21T04:47:50;16.80;99.90
14473;DHT22;7322;50.872;4.386;2022-08-21T04:50:18;16.90;99.90
14473;DHT22;7322;50.872;4.386;2022-08-21T04:52:47;17.00;99.90
14473;DHT22;7322;50.872;4.386;2022-08-21T04:55:15;17.00;99.90
14473;DHT22;7322;50.872;4.386;2022-08-21T04:57:43;17.00;99.90
14473;DHT22;7322;50.872;4.386;2022-08-21T05:00:11;17.00;99.90
14473;DHT22;7322;50.872;4.386;2022-08-21T05:02:39;17.00;99.90
14473;DHT22;7322;50.872;4.386;2022-08-21T05:05:10;17.00;99.90
14473;DHT22;7322;50.872;4.386;2022-08-21T05:07:37;16.90;99.90
14473;DHT22;7322;50.872;4.386;2022-08-21T05:10:05;16.90;99.90
14473;DHT22;7322;50.872;4.386;2022-08-21T05:12:34;17.00;99.90
14473;DHT22;7322;50.872;4.386;2022-08-21T05:15:01;16.90;99.90
14473;DHT22;7322;50.872;4.386;2022-08-21T05:17:28;16.90;99.90
14473;DHT22;7322;50.872;4.386;2022-08-21T05:19:55;17.00;99.90
14473;DHT22;7322;50.872;4.386;2022-08-21T05:22:24;17.00;99.90
14473;DHT22;7322;50.872;4.386;2022-08-21T05:24:51;16.90;99.90
14473;DHT22;7322;50.872;4.386;2022-08-21T05:27:19;16.90;99.90
14473;DHT22;7322;50.872;4.386;2022-08-21T05:29:45;16.90;99.90
14473;DHT22;7322;50.872;4.386;2022-08-21T05:32:13;17.00;99.90
14473;DHT22;7322;50.872;4.386;2022-08-21T05:34:40;17.00;99.90
14473;DHT22;7322;50.872;4.386;2022-08-21T05:37:11;17.00;99.90
14473;DHT22;7322;50.872;4.386;2022-08-21T05:39:40;16.90;99.90
14473;DHT22;7322;50.872;4.386;2022-08-21T05:42:08;16.90;99.90
14473;DHT22;7322;50.872;4.386;2022-08-21T05:44:45;16.90;99.90
14473;DHT22;7322;50.872;4.386;2022-08-21T05:47:19;16.90;99.90
14473;DHT22;7322;50.872;4.386;2022-08-21T05:49:47;16.90;99.90
14473;DHT22;7322;50.872;4.386;2022-08-21T05:52:18;16.90;99.90
14473;DHT22;7322;50.872;4.386;2022-08-21T05:54:54;16.90;99.90
14473;DHT22;7322;50.872;4.386;2022-08-21T05:57:30;16.90;99.90
14473;DHT22;7322;50.872;4.386;2022-08-21T06:00:06;17.00;99.90
14473;DHT22;7322;50.872;4.386;2022-08-21T06:02:56;17.10;99.90
14473;DHT22;7322;50.872;4.386;2022-08-21T06:05:49;17.10;99.90
14473;DHT22;7322;50.872;4.386;2022-08-21T06:08:23;17.10;99.90
14473;DHT22;7322;50.872;4.386;2022-08-21T06:11:24;17.00;99.90
14473;DHT22;7322;50.872;4.386;2022-08-21T06:13:50;17.10;99.90
14473;DHT22;7322;50.872;4.386;2022-08-21T06:16:19;17.20;99.90
14473;DHT22;7322;50.872;4.386;2022-08-21T06:18:49;17.60;99.90
14473;DHT22;7322;50.872;4.386;2022-08-21T06:21:17;18.30;99.90
14473;DHT22;7322;50.872;4.386;2022-08-21T06:23:52;19.30;99.90
14473;DHT22;7322;50.872;4.386;2022-08-21T06:26:34;20.50;99.90
14473;DHT22;7322;50.872;4.386;2022-08-21T06:29:12;21.60;99.90
14473;DHT22;7322;50.872;4.386;2022-08-21T06:31:42;22.10;99.90
14473;DHT22;7322;50.872;4.386;2022-08-21T06:34:09;22.20;99.90
14473;DHT22;7322;50.872;4.386;2022-08-21T06:36:53;22.70;99.90
14473;DHT22;7322;50.872;4.386;2022-08-21T06:39:26;22.90;99.90
14473;DHT22;7322;50.872;4.386;2022-08-21T06:42:02;23.20;99.90
14473;DHT22;7322;50.872;4.386;2022-08-21T06:44:49;23.50;99.90
14473;DHT22;7322;50.872;4.386;2022-08-21T06:47:23;23.50;99.90
14473;DHT22;7322;50.872;4.386;2022-08-21T06:49:50;23.20;99.90
14473;DHT22;7322;50.872;4.386;2022-08-21T06:52:18;23.20;99.90
14473;DHT22;7322;50.872;4.386;2022-08-21T06:54:52;23.60;99.90
14473;DHT22;7322;50.872;4.386;2022-08-21T06:57:21;24.60;99.90
14473;DHT22;7322;50.872;4.386;2022-08-21T06:59:49;25.40;99.90
14473;DHT22;7322;50.872;4.386;2022-08-21T07:02:16;26.10;99.90
14473;DHT22;7322;50.872;4.386;2022-08-21T07:04:45;25.50;99.90
14473;DHT22;7322;50.872;4.386;2022-08-21T07:07:14;26.10;99.90
14473;DHT22;7322;50.872;4.386;2022-08-21T07:09:41;27.10;99.90
14473;DHT22;7322;50.872;4.386;2022-08-21T07:12:08;27.60;99.90
14473;DHT22;7322;50.872;4.386;2022-08-21T07:14:37;26.80;99.90
14473;DHT22;7322;50.872;4.386;2022-08-21T07:17:22;26.90;99.90
14473;DHT22;7322;50.872;4.386;2022-08-21T07:20:03;27.60;99.90
14473;DHT22;7322;50.872;4.386;2022-08-21T07:22:33;27.50;99.90
14473;DHT22;7322;50.872;4.386;2022-08-21T07:25:03;26.50;99.90
14473;DHT22;7322;50.872;4.386;2022-08-21T07:27:30;27.00;99.90
14473;DHT22;7322;50.872;4.386;2022-08-21T07:29:59;27.00;99.90
14473;DHT22;7322;50.872;4.386;2022-08-21T07:32:26;26.80;99.90
14473;DHT22;7322;50.872;4.386;2022-08-21T07:34:53;26.00;99.90
14473;DHT22;7322;50.872;4.386;2022-08-21T07:37:21;26.10;99.90
14473;DHT22;7322;50.872;4.386;2022-08-21T07:39:48;25.70;99.90
14473;DHT22;7322;50.872;4.386;2022-08-21T07:42:17;26.30;99.90
14473;DHT22;7322;50.872;4.386;2022-08-21T07:44:44;26.40;99.90
14473;DHT22;7322;50.872;4.386;2022-08-21T07:47:12;26.70;99.90
14473;DHT22;7322;50.872;4.386;2022-08-21T07:49:39;26.40;99.90
14473;DHT22;7322;50.872;4.386;2022-08-21T07:52:06;26.10;99.90
14473;DHT22;7322;50.872;4.386;2022-08-21T07:54:33;26.40;99.90
14473;DHT22;7322;50.872;4.386;2022-08-21T07:57:00;26.20;99.90
14473;DHT22;7322;50.872;4.386;2022-08-21T07:59:27;26.10;99.90
14473;DHT22;7322;50.872;4.386;2022-08-21T08:01:54;26.20;99.90
14473;DHT22;7322;50.872;4.386;2022-08-21T08:04:22;26.60;99.90
14473;DHT22;7322;50.872;4.386;2022-08-21T08:06:49;26.10;99.90
14473;DHT22;7322;50.872;4.386;2022-08-21T08:09:16;25.90;99.90
14473;DHT22;7322;50.872;4.386;2022-08-21T08:11:43;25.70;99.90
14473;DHT22;7322;50.872;4.386;2022-08-21T08:14:10;25.20;99.90
14473;DHT22;7322;50.872;4.386;2022-08-21T08:16:38;24.70;99.90
14473;DHT22;7322;50.872;4.386;2022-08-21T08:19:05;24.50;99.90
14473;DHT22;7322;50.872;4.386;2022-08-21T08:21:33;24.50;99.90
14473;DHT22;7322;50.872;4.386;2022-08-21T08:24:02;24.20;99.90
14473;DHT22;7322;50.872;4.386;2022-08-21T08:26:29;24.40;99.90
14473;DHT22;7322;50.872;4.386;2022-08-21T08:28:56;24.10;99.90
14473;DHT22;7322;50.872;4.386;2022-08-21T08:31:23;23.90;99.90
14473;DHT22;7322;50.872;4.386;2022-08-21T08:33:50;24.40;99.90
14473;DHT22;7322;50.872;4.386;2022-08-21T08:36:18;24.60;99.90
14473;DHT22;7322;50.872;4.386;2022-08-21T08:38:51;25.10;99.90
14473;DHT22;7322;50.872;4.386;2022-08-21T08:41:23;25.60;99.90
14473;DHT22;7322;50.872;4.386;2022-08-21T08:43:53;25.60;99.90
14473;DHT22;7322;50.872;4.386;2022-08-21T08:46:28;25.80;99.90
14473;DHT22;7322;50.872;4.386;2022-08-21T08:49:09;26.20;99.90
14473;DHT22;7322;50.872;4.386;2022-08-21T08:51:44;26.80;99.90
14473;DHT22;7322;50.872;4.386;2022-08-21T08:54:20;27.10;99.90
14473;DHT22;7322;50.872;4.386;2022-08-21T08:56:49;27.50;99.90
14473;DHT22;7322;50.872;4.386;2022-08-21T08:59:25;27.40;99.90
14473;DHT22;7322;50.872;4.386;2022-08-21T09:01:52;27.10;99.90
14473;DHT22;7322;50.872;4.386;2022-08-21T09:04:26;27.20;99.90
14473;DHT22;7322;50.872;4.386;2022-08-21T09:07:01;26.80;99.90
14473;DHT22;7322;50.872;4.386;2022-08-21T09:09:44;26.80;99.90
14473;DHT22;7322;50.872;4.386;2022-08-21T09:12:18;27.00;99.90
14473;DHT22;7322;50.872;4.386;2022-08-21T09:15:01;27.30;99.90
14473;DHT22;7322;50.872;4.386;2022-08-21T09:17:40;27.70;99.90
14473;DHT22;7322;50.872;4.386;2022-08-21T09:20:28;27.50;99.90
14473;DHT22;7322;50.872;4.386;2022-08-21T09:23:08;27.10;99.90
14473;DHT22;7322;50.872;4.386;2022-08-21T09:25:42;26.30;99.90
14473;DHT22;7322;50.872;4.386;2022-08-21T09:28:12;26.00;99.90
14473;DHT22;7322;50.872;4.386;2022-08-21T09:30:40;26.30;99.90
14473;DHT22;7322;50.872;4.386;2022-08-21T09:33:09;26.40;99.90
14473;DHT22;7322;50.872;4.386;2022-08-21T09:35:48;27.10;99.90
14473;DHT22;7322;50.872;4.386;2022-08-21T09:38:26;26.90;99.90
14473;DHT22;7322;50.872;4.386;2022-08-21T09:40:59;26.50;99.90
14473;DHT22;7322;50.872;4.386;2022-08-21T09:43:27;26.80;99.90
14473;DHT22;7322;50.872;4.386;2022-08-21T09:46:07;26.90;99.90
14473;DHT22;7322;50.872;4.386;2022-08-21T09:48:44;26.60;99.90
14473;DHT22;7322;50.872;4.386;2022-08-21T09:51:14;26.00;99.90
14473;DHT22;7322;50.872;4.386;2022-08-21T09:53:45;25.60;99.90
14473;DHT22;7322;50.872;4.386;2022-08-21T09:56:26;25.50;99.90
14473;DHT22;7322;50.872;4.386;2022-08-21T09:59:17;25.10;99.90
14473;DHT22;7322;50.872;4.386;2022-08-21T10:01:47;24.80;99.90
14473;DHT22;7322;50.872;4.386;2022-08-21T10:04:14;25.00;99.90
14473;DHT22;7322;50.872;4.386;2022-08-21T10:06:41;25.00;99.90
14473;DHT22;7322;50.872;4.386;2022-08-21T10:09:12;25.10;99.90
14473;DHT22;7322;50.872;4.386;2022-08-21T10:11:47;25.10;99.90
14473;DHT22;7322;50.872;4.386;2022-08-21T10:14:26;24.80;99.90
14473;DHT22;7322;50.872;4.386;2022-08-21T10:17:03;24.60;99.90
14473;DHT22;7322;50.872;4.386;2022-08-21T10:19:38;25.00;99.90
14473;DHT22;7322;50.872;4.386;2022-08-21T10:22:15;25.80;99.90
14473;DHT22;7322;50.872;4.386;2022-08-21T10:24:52;26.50;99.90
14473;DHT22;7322;50.872;4.386;2022-08-21T10:27:32;26.60;99.90
14473;DHT22;7322;50.872;4.386;2022-08-21T10:30:04;27.00;99.90
14473;DHT22;7322;50.872;4.386;2022-08-21T10:32:49;27.10;99.90
14473;DHT22;7322;50.872;4.386;2022-08-21T10:35:24;27.00;99.90
14473;DHT22;7322;50.872;4.386;2022-08-21T10:41:00;25.80;99.90
14473;DHT22;7322;50.872;4.386;2022-08-21T10:43:39;25.10;99.90
14473;DHT22;7322;50.872;4.386;2022-08-21T10:46:20;25.10;99.90
14473;DHT22;7322;50.872;4.386;2022-08-21T10:48:54;25.30;99.90
14473;DHT22;7322;50.872;4.386;2022-08-21T10:51:30;25.50;99.90
14473;DHT22;7322;50.872;4.386;2022-08-21T10:54:03;26.10;99.90
14473;DHT22;7322;50.872;4.386;2022-08-21T10:56:34;25.90;99.90
14473;DHT22;7322;50.872;4.386;2022-08-21T10:59:24;25.60;99.90
14473;DHT22;7322;50.872;4.386;2022-08-21T11:01:58;25.50;99.90
14473;DHT22;7322;50.872;4.386;2022-08-21T11:04:33;25.30;99.90
14473;DHT22;7322;50.872;4.386;2022-08-21T11:07:06;25.30;99.90
14473;DHT22;7322;50.872;4.386;2022-08-21T11:09:36;25.10;99.90
14473;DHT22;7322;50.872;4.386;2022-08-21T11:12:09;25.00;99.90
14473;DHT22;7322;50.872;4.386;2022-08-21T11:14:51;25.00;99.90
14473;DHT22;7322;50.872;4.386;2022-08-21T11:17:27;25.10;99.90
14473;DHT22;7322;50.872;4.386;2022-08-21T11:20:02;25.60;99.90
14473;DHT22;7322;50.872;4.386;2022-08-21T11:22:36;26.10;99.90
14473;DHT22;7322;50.872;4.386;2022-08-21T11:25:09;26.40;99.90
14473;DHT22;7322;50.872;4.386;2022-08-21T11:27:41;26.50;99.90
14473;DHT22;7322;50.872;4.386;2022-08-21T11:30:11;26.40;99.90
14473;DHT22;7322;50.872;4.386;2022-08-21T11:32:52;26.10;99.90
14473;DHT22;7322;50.872;4.386;2022-08-21T11:35:31;26.10;99.90
14473;DHT22;7322;50.872;4.386;2022-08-21T11:38:20;26.30;99.90
14473;DHT22;7322;50.872;4.386;2022-08-21T11:41:02;26.20;99.90
14473;DHT22;7322;50.872;4.386;2022-08-21T11:43:37;26.40;99.90
14473;DHT22;7322;50.872;4.386;2022-08-21T11:46:18;27.00;99.90
14473;DHT22;7322;50.872;4.386;2022-08-21T11:48:56;26.60;99.90
14473;DHT22;7322;50.872;4.386;2022-08-21T11:51:27;27.00;99.90
14473;DHT22;7322;50.872;4.386;2022-08-21T11:54:02;27.70;99.90
14473;DHT22;7322;50.872;4.386;2022-08-21T11:56:36;27.80;99.90
14473;DHT22;7322;50.872;4.386;2022-08-21T11:59:10;27.50;99.90
14473;DHT22;7322;50.872;4.386;2022-08-21T12:01:41;27.80;99.90
14473;DHT22;7322;50.872;4.386;2022-08-21T12:04:17;28.00;99.90
14473;DHT22;7322;50.872;4.386;2022-08-21T12:06:53;28.50;99.90
14473;DHT22;7322;50.872;4.386;2022-08-21T12:09:34;29.00;99.90
14473;DHT22;7322;50.872;4.386;2022-08-21T12:12:23;29.30;99.90
14473;DHT22;7322;50.872;4.386;2022-08-21T12:15:03;28.80;99.90
14473;DHT22;7322;50.872;4.386;2022-08-21T12:17:55;28.40;99.90
14473;DHT22;7322;50.872;4.386;2022-08-21T12:20:33;28.40;99.90
14473;DHT22;7322;50.872;4.386;2022-08-21T12:23:23;27.80;99.90
14473;DHT22;7322;50.872;4.386;2022-08-21T12:26:13;27.70;99.90
14473;DHT22;7322;50.872;4.386;2022-08-21T12:28:44;27.30;99.90
14473;DHT22;7322;50.872;4.386;2022-08-21T12:31:24;27.40;99.90
14473;DHT22;7322;50.872;4.386;2022-08-21T12:33:55;27.30;99.90
14473;DHT22;7322;50.872;4.386;2022-08-21T12:36:26;27.00;99.90
14473;DHT22;7322;50.872;4.386;2022-08-21T12:38:58;27.40;99.90
14473;DHT22;7322;50.872;4.386;2022-08-21T12:41:30;27.80;99.90
14473;DHT22;7322;50.872;4.386;2022-08-21T12:44:00;27.70;99.90
14473;DHT22;7322;50.872;4.386;2022-08-21T12:46:34;27.80;99.90
14473;DHT22;7322;50.872;4.386;2022-08-21T12:49:08;27.50;99.90
14473;DHT22;7322;50.872;4.386;2022-08-21T12:51:52;27.30;99.90
14473;DHT22;7322;50.872;4.386;2022-08-21T12:54:30;27.40;99.90
14473;DHT22;7322;50.872;4.386;2022-08-21T12:56:59;27.10;99.90
14473;DHT22;7322;50.872;4.386;2022-08-21T12:59:27;26.90;99.90
14473;DHT22;7322;50.872;4.386;2022-08-21T13:01:55;26.60;99.90
14473;DHT22;7322;50.872;4.386;2022-08-21T13:04:33;26.50;99.90
14473;DHT22;7322;50.872;4.386;2022-08-21T13:07:06;26.70;99.90
14473;DHT22;7322;50.872;4.386;2022-08-21T13:09:43;26.90;99.90
14473;DHT22;7322;50.872;4.386;2022-08-21T13:12:11;26.90;99.90
14473;DHT22;7322;50.872;4.386;2022-08-21T13:14:41;26.90;99.90
14473;DHT22;7322;50.872;4.386;2022-08-21T13:17:10;26.80;99.90
14473;DHT22;7322;50.872;4.386;2022-08-21T13:19:40;26.80;99.90
14473;DHT22;7322;50.872;4.386;2022-08-21T13:22:13;26.50;99.90
14473;DHT22;7322;50.872;4.386;2022-08-21T13:24:40;26.50;99.90
14473;DHT22;7322;50.872;4.386;2022-08-21T13:27:22;26.50;99.90
14473;DHT22;7322;50.872;4.386;2022-08-21T13:30:01;26.70;99.90
14473;DHT22;7322;50.872;4.386;2022-08-21T13:32:30;26.90;99.90
14473;DHT22;7322;50.872;4.386;2022-08-21T13:35:08;26.90;99.90
14473;DHT22;7322;50.872;4.386;2022-08-21T13:37:39;27.10;99.90
14473;DHT22;7322;50.872;4.386;2022-08-21T13:40:09;26.90;99.90
14473;DHT22;7322;50.872;4.386;2022-08-21T13:42:40;27.00;99.90
14473;DHT22;7322;50.872;4.386;2022-08-21T13:45:22;27.20;99.90
14473;DHT22;7322;50.872;4.386;2022-08-21T13:47:50;26.70;99.90
14473;DHT22;7322;50.872;4.386;2022-08-21T13:50:22;26.20;99.90
14473;DHT22;7322;50.872;4.386;2022-08-21T13:52:58;26.40;99.90
14473;DHT22;7322;50.872;4.386;2022-08-21T13:55:35;26.70;99.90
14473;DHT22;7322;50.872;4.386;2022-08-21T13:58:04;27.00;99.90
14473;DHT22;7322;50.872;4.386;2022-08-21T14:00:32;27.20;99.90
14473;DHT22;7322;50.872;4.386;2022-08-21T14:03:04;27.20;99.90
14473;DHT22;7322;50.872;4.386;2022-08-21T14:05:36;27.00;99.90
14473;DHT22;7322;50.872;4.386;2022-08-21T14:08:08;26.90;99.90
14473;DHT22;7322;50.872;4.386;2022-08-21T14:10:42;26.70;99.90
14473;DHT22;7322;50.872;4.386;2022-08-21T14:13:30;26.50;99.90
14473;DHT22;7322;50.872;4.386;2022-08-21T14:16:00;26.80;99.90
14473;DHT22;7322;50.872;4.386;2022-08-21T14:18:28;27.20;99.90
14473;DHT22;7322;50.872;4.386;2022-08-21T14:21:06;27.00;99.90
14473;DHT22;7322;50.872;4.386;2022-08-21T14:23:35;26.90;99.90
14473;DHT22;7322;50.872;4.386;2022-08-21T14:26:04;26.70;99.90
14473;DHT22;7322;50.872;4.386;2022-08-21T14:28:34;26.50;99.90
14473;DHT22;7322;50.872;4.386;2022-08-21T14:31:13;26.50;99.90
14473;DHT22;7322;50.872;4.386;2022-08-21T14:33:40;26.50;99.90
14473;DHT22;7322;50.872;4.386;2022-08-21T14:36:08;26.20;99.90
14473;DHT22;7322;50.872;4.386;2022-08-21T14:38:37;26.20;99.90
14473;DHT22;7322;50.872;4.386;2022-08-21T14:41:11;26.10;99.90
14473;DHT22;7322;50.872;4.386;2022-08-21T14:43:41;26.20;99.90
14473;DHT22;7322;50.872;4.386;2022-08-21T14:46:10;26.20;99.90
14473;DHT22;7322;50.872;4.386;2022-08-21T14:48:37;26.30;99.90
14473;DHT22;7322;50.872;4.386;2022-08-21T14:51:04;26.30;99.90
14473;DHT22;7322;50.872;4.386;2022-08-21T14:53:33;26.30;99.90
14473;DHT22;7322;50.872;4.386;2022-08-21T14:56:00;26.30;99.90
14473;DHT22;7322;50.872;4.386;2022-08-21T14:58:35;26.40;99.90
14473;DHT22;7322;50.872;4.386;2022-08-21T15:01:03;26.30;99.90
14473;DHT22;7322;50.872;4.386;2022-08-21T15:03:31;26.40;99.90
14473;DHT22;7322;50.872;4.386;2022-08-21T15:05:58;26.30;99.90
14473;DHT22;7322;50.872;4.386;2022-08-21T15:08:26;26.50;99.90
14473;DHT22;7322;50.872;4.386;2022-08-21T15:10:54;26.00;99.90
14473;DHT22;7322;50.872;4.386;2022-08-21T15:13:22;26.00;99.90
14473;DHT22;7322;50.872;4.386;2022-08-21T15:15:51;26.20;99.90
14473;DHT22;7322;50.872;4.386;2022-08-21T15:18:18;26.10;99.90
14473;DHT22;7322;50.872;4.386;2022-08-21T15:20:45;26.10;99.90
14473;DHT22;7322;50.872;4.386;2022-08-21T15:23:12;26.00;99.90
14473;DHT22;7322;50.872;4.386;2022-08-21T15:25:40;26.20;99.90
14473;DHT22;7322;50.872;4.386;2022-08-21T15:28:09;26.20;99.90
14473;DHT22;7322;50.872;4.386;2022-08-21T15:30:37;26.40;99.90
14473;DHT22;7322;50.872;4.386;2022-08-21T15:33:04;26.00;99.90
14473;DHT22;7322;50.872;4.386;2022-08-21T15:35:32;26.00;99.90
14473;DHT22;7322;50.872;4.386;2022-08-21T15:37:58;26.10;99.90
14473;DHT22;7322;50.872;4.386;2022-08-21T15:40:26;26.20;99.90
14473;DHT22;7322;50.872;4.386;2022-08-21T15:42:58;25.90;99.90
14473;DHT22;7322;50.872;4.386;2022-08-21T15:45:28;26.00;99.90
14473;DHT22;7322;50.872;4.386;2022-08-21T15:47:56;25.90;99.90
14473;DHT22;7322;50.872;4.386;2022-08-21T15:50:24;25.90;99.90
14473;DHT22;7322;50.872;4.386;2022-08-21T15:52:53;25.70;99.90
14473;DHT22;7322;50.872;4.386;2022-08-21T15:55:20;25.60;99.90
14473;DHT22;7322;50.872;4.386;2022-08-21T15:57:49;25.60;99.90
14473;DHT22;7322;50.872;4.386;2022-08-21T16:00:20;25.60;99.90
14473;DHT22;7322;50.872;4.386;2022-08-21T16:02:53;25.40;99.90
14473;DHT22;7322;50.872;4.386;2022-08-21T16:05:26;25.50;99.90
14473;DHT22;7322;50.872;4.386;2022-08-21T16:07:59;25.30;99.90
14473;DHT22;7322;50.872;4.386;2022-08-21T16:10:28;25.20;99.90
14473;DHT22;7322;50.872;4.386;2022-08-21T16:12:58;25.20;99.90
14473;DHT22;7322;50.872;4.386;2022-08-21T16:15:28;25.50;99.90
14473;DHT22;7322;50.872;4.386;2022-08-21T16:17:56;25.50;99.90